sensor_id;sensor_type;location;lat;lon;timestamp;P1;durP1;ratioP1;P2;durP2;ratioP2
67556;SDS011;54387;53.526;49.300;2022-07-06T00:00:03;9.75;;;4.70;;
67556;SDS011;54387;53.526;49.300;2022-07-06T00:02:30;7.82;;;4.28;;
67556;SDS011;54387;53.526;49.300;2022-07-06T00:04:57;7.03;;;4.03;;
67556;SDS011;54387;53.526;49.300;2022-07-06T00:07:23;6.78;;;3.95;;
67556;SDS011;54387;53.526;49.300;2022-07-06T00:09:49;6.70;;;3.80;;
67556;SDS011;54387;53.526;49.300;2022-07-06T00:12:15;7.03;;;3.65;;
67556;SDS011;54387;53.526;49.300;2022-07-06T00:14:42;5.45;;;4.13;;
67556;SDS011;54387;53.526;49.300;2022-07-06T00:17:08;8.48;;;4.20;;
67556;SDS011;54387;53.526;49.300;2022-07-06T00:19:34;10.88;;;4.60;;
67556;SDS011;54387;53.526;49.300;2022-07-06T00:22:00;8.95;;;4.30;;
67556;SDS011;54387;53.526;49.300;2022-07-06T00:24:26;9.20;;;4.40;;
67556;SDS011;54387;53.526;49.300;2022-07-06T00:26:53;9.88;;;4.80;;
67556;SDS011;54387;53.526;49.300;2022-07-06T00:29:19;7.13;;;4.25;;
67556;SDS011;54387;53.526;49.300;2022-07-06T00:31:45;8.07;;;4.40;;
67556;SDS011;54387;53.526;49.300;2022-07-06T00:34:11;7.40;;;4.60;;
67556;SDS011;54387;53.526;49.300;2022-07-06T00:36:38;7.60;;;3.95;;
67556;SDS011;54387;53.526;49.300;2022-07-06T00:39:04;7.25;;;4.72;;
67556;SDS011;54387;53.526;49.300;2022-07-06T00:41:30;6.10;;;4.13;;
67556;SDS011;54387;53.526;49.300;2022-07-06T00:43:56;8.30;;;4.70;;
67556;SDS011;54387;53.526;49.300;2022-07-06T00:46:25;8.57;;;4.13;;
67556;SDS011;54387;53.526;49.300;2022-07-06T00:48:54;11.27;;;4.10;;
67556;SDS011;54387;53.526;49.300;2022-07-06T00:51:22;9.50;;;4.35;;
67556;SDS011;54387;53.526;49.300;2022-07-06T00:53:55;6.65;;;4.43;;
67556;SDS011;54387;53.526;49.300;2022-07-06T00:56:25;6.00;;;4.03;;
67556;SDS011;54387;53.526;49.300;2022-07-06T00:58:53;6.22;;;4.07;;
67556;SDS011;54387;53.526;49.300;2022-07-06T01:01:20;8.25;;;4.68;;
67556;SDS011;54387;53.526;49.300;2022-07-06T01:03:46;10.75;;;4.45;;
67556;SDS011;54387;53.526;49.300;2022-07-06T01:06:12;12.43;;;4.47;;
67556;SDS011;54387;53.526;49.300;2022-07-06T01:08:39;7.22;;;4.13;;
67556;SDS011;54387;53.526;49.300;2022-07-06T01:11:06;9.20;;;4.50;;
67556;SDS011;54387;53.526;49.300;2022-07-06T01:13:32;7.90;;;4.30;;
67556;SDS011;54387;53.526;49.300;2022-07-06T01:15:59;8.68;;;4.03;;
67556;SDS011;54387;53.526;49.300;2022-07-06T01:18:26;6.85;;;3.97;;
67556;SDS011;54387;53.526;49.300;2022-07-06T01:21:04;7.32;;;4.57;;
67556;SDS011;54387;53.526;49.300;2022-07-06T01:23:31;6.97;;;3.97;;
67556;SDS011;54387;53.526;49.300;2022-07-06T01:25:58;6.57;;;3.50;;
67556;SDS011;54387;53.526;49.300;2022-07-06T01:28:24;5.18;;;3.25;;
67556;SDS011;54387;53.526;49.300;2022-07-06T01:30:50;6.38;;;3.50;;
67556;SDS011;54387;53.526;49.300;2022-07-06T01:33:16;5.57;;;3.10;;
67556;SDS011;54387;53.526;49.300;2022-07-06T01:35:42;5.28;;;2.88;;
67556;SDS011;54387;53.526;49.300;2022-07-06T01:38:09;4.65;;;2.85;;
67556;SDS011;54387;53.526;49.300;2022-07-06T01:40:35;4.20;;;2.88;;
67556;SDS011;54387;53.526;49.300;2022-07-06T01:43:01;4.82;;;2.85;;
67556;SDS011;54387;53.526;49.300;2022-07-06T01:45:30;4.40;;;2.67;;
67556;SDS011;54387;53.526;49.300;2022-07-06T01:47:57;5.45;;;3.28;;
67556;SDS011;54387;53.526;49.300;2022-07-06T01:50:24;10.75;;;3.38;;
67556;SDS011;54387;53.526;49.300;2022-07-06T01:52:50;8.20;;;3.03;;
67556;SDS011;54387;53.526;49.300;2022-07-06T01:55:16;10.50;;;3.08;;
67556;SDS011;54387;53.526;49.300;2022-07-06T01:57:42;6.43;;;2.50;;
67556;SDS011;54387;53.526;49.300;2022-07-06T02:00:09;4.65;;;2.40;;
67556;SDS011;54387;53.526;49.300;2022-07-06T02:02:35;10.27;;;3.30;;
67556;SDS011;54387;53.526;49.300;2022-07-06T02:05:01;7.60;;;3.38;;
67556;SDS011;54387;53.526;49.300;2022-07-06T02:07:28;7.55;;;3.78;;
67556;SDS011;54387;53.526;49.300;2022-07-06T02:09:54;9.50;;;3.95;;
67556;SDS011;54387;53.526;49.300;2022-07-06T02:12:20;8.73;;;4.20;;
67556;SDS011;54387;53.526;49.300;2022-07-06T02:14:55;10.40;;;3.53;;
67556;SDS011;54387;53.526;49.300;2022-07-06T02:17:21;12.40;;;5.95;;
67556;SDS011;54387;53.526;49.300;2022-07-06T02:19:47;17.65;;;8.13;;
67556;SDS011;54387;53.526;49.300;2022-07-06T02:22:13;15.95;;;7.18;;
67556;SDS011;54387;53.526;49.300;2022-07-06T02:24:39;14.68;;;6.43;;
67556;SDS011;54387;53.526;49.300;2022-07-06T02:27:05;15.05;;;5.97;;
67556;SDS011;54387;53.526;49.300;2022-07-06T02:29:32;14.07;;;5.55;;
67556;SDS011;54387;53.526;49.300;2022-07-06T02:31:58;13.25;;;5.65;;
67556;SDS011;54387;53.526;49.300;2022-07-06T02:34:24;16.23;;;6.38;;
67556;SDS011;54387;53.526;49.300;2022-07-06T02:36:53;20.33;;;6.45;;
67556;SDS011;54387;53.526;49.300;2022-07-06T02:39:19;14.38;;;6.30;;
67556;SDS011;54387;53.526;49.300;2022-07-06T02:41:45;11.35;;;5.68;;
67556;SDS011;54387;53.526;49.300;2022-07-06T02:44:11;15.25;;;5.60;;
67556;SDS011;54387;53.526;49.300;2022-07-06T02:46:38;16.27;;;5.68;;
67556;SDS011;54387;53.526;49.300;2022-07-06T02:49:04;13.02;;;5.60;;
67556;SDS011;54387;53.526;49.300;2022-07-06T02:51:30;11.57;;;5.40;;
67556;SDS011;54387;53.526;49.300;2022-07-06T02:53:56;11.02;;;4.30;;
67556;SDS011;54387;53.526;49.300;2022-07-06T02:56:22;6.47;;;3.47;;
67556;SDS011;54387;53.526;49.300;2022-07-06T02:58:49;11.88;;;4.28;;
67556;SDS011;54387;53.526;49.300;2022-07-06T03:01:15;6.55;;;3.00;;
67556;SDS011;54387;53.526;49.300;2022-07-06T03:03:44;9.15;;;2.67;;
67556;SDS011;54387;53.526;49.300;2022-07-06T03:06:10;8.35;;;2.50;;
67556;SDS011;54387;53.526;49.300;2022-07-06T03:08:36;7.30;;;2.15;;
67556;SDS011;54387;53.526;49.300;2022-07-06T03:11:02;6.32;;;2.78;;
67556;SDS011;54387;53.526;49.300;2022-07-06T03:13:32;7.47;;;2.22;;
67556;SDS011;54387;53.526;49.300;2022-07-06T03:15:58;6.30;;;1.80;;
67556;SDS011;54387;53.526;49.300;2022-07-06T03:18:24;8.43;;;2.28;;
67556;SDS011;54387;53.526;49.300;2022-07-06T03:20:50;8.00;;;2.33;;
67556;SDS011;54387;53.526;49.300;2022-07-06T03:23:17;7.35;;;2.38;;
67556;SDS011;54387;53.526;49.300;2022-07-06T03:25:43;3.58;;;1.80;;
67556;SDS011;54387;53.526;49.300;2022-07-06T03:28:09;4.95;;;2.10;;
67556;SDS011;54387;53.526;49.300;2022-07-06T03:30:35;2.75;;;1.20;;
67556;SDS011;54387;53.526;49.300;2022-07-06T03:33:01;5.47;;;1.60;;
67556;SDS011;54387;53.526;49.300;2022-07-06T03:35:28;2.90;;;1.30;;
67556;SDS011;54387;53.526;49.300;2022-07-06T03:37:54;2.65;;;1.23;;
67556;SDS011;54387;53.526;49.300;2022-07-06T03:40:20;3.92;;;1.15;;
67556;SDS011;54387;53.526;49.300;2022-07-06T03:42:46;4.88;;;1.73;;
67556;SDS011;54387;53.526;49.300;2022-07-06T03:45:13;3.30;;;1.70;;
67556;SDS011;54387;53.526;49.300;2022-07-06T03:47:39;1.63;;;1.08;;
67556;SDS011;54387;53.526;49.300;2022-07-06T03:50:06;4.00;;;1.38;;
67556;SDS011;54387;53.526;49.300;2022-07-06T03:52:34;6.32;;;1.48;;
67556;SDS011;54387;53.526;49.300;2022-07-06T03:55:05;3.38;;;1.35;;
67556;SDS011;54387;53.526;49.300;2022-07-06T03:57:35;3.67;;;1.50;;
67556;SDS011;54387;53.526;49.300;2022-07-06T04:00:02;5.78;;;1.80;;
67556;SDS011;54387;53.526;49.300;2022-07-06T04:02:30;5.63;;;1.55;;
67556;SDS011;54387;53.526;49.300;2022-07-06T04:04:57;4.45;;;1.80;;
67556;SDS011;54387;53.526;49.300;2022-07-06T04:07:23;5.25;;;1.65;;
67556;SDS011;54387;53.526;49.300;2022-07-06T04:09:50;6.63;;;1.63;;
67556;SDS011;54387;53.526;49.300;2022-07-06T04:12:16;5.55;;;1.90;;
67556;SDS011;54387;53.526;49.300;2022-07-06T04:14:43;3.53;;;1.58;;
67556;SDS011;54387;53.526;49.300;2022-07-06T04:17:09;4.63;;;1.65;;
67556;SDS011;54387;53.526;49.300;2022-07-06T04:19:54;3.17;;;1.50;;
67556;SDS011;54387;53.526;49.300;2022-07-06T04:22:20;3.97;;;1.35;;
67556;SDS011;54387;53.526;49.300;2022-07-06T04:24:46;4.43;;;1.50;;
67556;SDS011;54387;53.526;49.300;2022-07-06T04:27:12;4.65;;;1.48;;
67556;SDS011;54387;53.526;49.300;2022-07-06T04:29:39;3.88;;;2.20;;
67556;SDS011;54387;53.526;49.300;2022-07-06T04:32:05;2.42;;;1.38;;
67556;SDS011;54387;53.526;49.300;2022-07-06T04:34:31;4.72;;;2.30;;
67556;SDS011;54387;53.526;49.300;2022-07-06T04:36:58;5.60;;;2.45;;
67556;SDS011;54387;53.526;49.300;2022-07-06T04:39:27;7.93;;;2.60;;
67556;SDS011;54387;53.526;49.300;2022-07-06T04:41:56;5.70;;;2.20;;
67556;SDS011;54387;53.526;49.300;2022-07-06T04:44:22;5.97;;;1.80;;
67556;SDS011;54387;53.526;49.300;2022-07-06T04:46:48;5.68;;;1.65;;
67556;SDS011;54387;53.526;49.300;2022-07-06T04:49:14;8.98;;;2.05;;
67556;SDS011;54387;53.526;49.300;2022-07-06T04:51:41;6.97;;;1.70;;
67556;SDS011;54387;53.526;49.300;2022-07-06T04:54:07;5.68;;;1.50;;
67556;SDS011;54387;53.526;49.300;2022-07-06T04:56:33;7.72;;;1.40;;
67556;SDS011;54387;53.526;49.300;2022-07-06T04:58:59;8.82;;;1.73;;
67556;SDS011;54387;53.526;49.300;2022-07-06T05:01:26;4.15;;;1.70;;
67556;SDS011;54387;53.526;49.300;2022-07-06T05:03:52;9.00;;;1.92;;
67556;SDS011;54387;53.526;49.300;2022-07-06T05:06:18;4.78;;;1.00;;
67556;SDS011;54387;53.526;49.300;2022-07-06T05:08:45;5.18;;;1.30;;
67556;SDS011;54387;53.526;49.300;2022-07-06T05:11:17;3.35;;;1.52;;
67556;SDS011;54387;53.526;49.300;2022-07-06T05:13:44;3.25;;;1.70;;
67556;SDS011;54387;53.526;49.300;2022-07-06T05:16:10;4.47;;;1.60;;
67556;SDS011;54387;53.526;49.300;2022-07-06T05:18:36;4.53;;;1.38;;
67556;SDS011;54387;53.526;49.300;2022-07-06T05:21:02;7.93;;;2.00;;
67556;SDS011;54387;53.526;49.300;2022-07-06T05:23:29;4.68;;;1.48;;
67556;SDS011;54387;53.526;49.300;2022-07-06T05:25:55;5.15;;;1.83;;
67556;SDS011;54387;53.526;49.300;2022-07-06T05:28:21;6.57;;;1.42;;
67556;SDS011;54387;53.526;49.300;2022-07-06T05:30:47;8.52;;;1.52;;
67556;SDS011;54387;53.526;49.300;2022-07-06T05:33:14;1.75;;;1.15;;
67556;SDS011;54387;53.526;49.300;2022-07-06T05:35:40;4.07;;;1.10;;
67556;SDS011;54387;53.526;49.300;2022-07-06T05:38:07;4.32;;;1.10;;
67556;SDS011;54387;53.526;49.300;2022-07-06T05:40:33;3.47;;;1.08;;
67556;SDS011;54387;53.526;49.300;2022-07-06T05:42:59;4.65;;;1.00;;
67556;SDS011;54387;53.526;49.300;2022-07-06T05:45:25;2.65;;;1.10;;
67556;SDS011;54387;53.526;49.300;2022-07-06T05:47:52;4.00;;;1.23;;
67556;SDS011;54387;53.526;49.300;2022-07-06T05:50:36;3.90;;;1.10;;
67556;SDS011;54387;53.526;49.300;2022-07-06T05:53:04;3.35;;;0.90;;
67556;SDS011;54387;53.526;49.300;2022-07-06T05:55:30;7.18;;;1.20;;
67556;SDS011;54387;53.526;49.300;2022-07-06T05:57:57;3.35;;;1.25;;
67556;SDS011;54387;53.526;49.300;2022-07-06T06:00:23;3.90;;;1.10;;
67556;SDS011;54387;53.526;49.300;2022-07-06T06:02:51;3.38;;;1.27;;
67556;SDS011;54387;53.526;49.300;2022-07-06T06:05:18;5.53;;;1.30;;
67556;SDS011;54387;53.526;49.300;2022-07-06T06:08:05;2.45;;;1.00;;
67556;SDS011;54387;53.526;49.300;2022-07-06T06:10:31;1.92;;;1.05;;
67556;SDS011;54387;53.526;49.300;2022-07-06T06:12:57;6.75;;;1.10;;
67556;SDS011;54387;53.526;49.300;2022-07-06T06:15:23;3.75;;;1.30;;
67556;SDS011;54387;53.526;49.300;2022-07-06T06:17:50;4.28;;;1.30;;
67556;SDS011;54387;53.526;49.300;2022-07-06T06:20:16;2.95;;;1.27;;
67556;SDS011;54387;53.526;49.300;2022-07-06T06:22:46;5.00;;;0.90;;
67556;SDS011;54387;53.526;49.300;2022-07-06T06:25:33;2.75;;;1.13;;
67556;SDS011;54387;53.526;49.300;2022-07-06T06:28:04;3.33;;;0.95;;
67556;SDS011;54387;53.526;49.300;2022-07-06T06:30:32;8.52;;;1.30;;
67556;SDS011;54387;53.526;49.300;2022-07-06T06:33:05;3.55;;;1.08;;
67556;SDS011;54387;53.526;49.300;2022-07-06T06:35:32;5.95;;;1.15;;
67556;SDS011;54387;53.526;49.300;2022-07-06T06:37:58;3.97;;;1.13;;
67556;SDS011;54387;53.526;49.300;2022-07-06T06:40:24;5.18;;;0.98;;
67556;SDS011;54387;53.526;49.300;2022-07-06T06:42:51;4.00;;;0.90;;
67556;SDS011;54387;53.526;49.300;2022-07-06T06:45:17;2.95;;;1.05;;
67556;SDS011;54387;53.526;49.300;2022-07-06T06:47:43;3.17;;;0.80;;
67556;SDS011;54387;53.526;49.300;2022-07-06T06:50:09;3.58;;;1.23;;
67556;SDS011;54387;53.526;49.300;2022-07-06T06:52:36;5.70;;;1.00;;
67556;SDS011;54387;53.526;49.300;2022-07-06T06:55:02;2.97;;;1.10;;
67556;SDS011;54387;53.526;49.300;2022-07-06T06:57:28;3.42;;;1.10;;
67556;SDS011;54387;53.526;49.300;2022-07-06T06:59:55;1.20;;;0.65;;
67556;SDS011;54387;53.526;49.300;2022-07-06T07:02:21;2.38;;;0.68;;
67556;SDS011;54387;53.526;49.300;2022-07-06T07:04:47;3.28;;;0.93;;
67556;SDS011;54387;53.526;49.300;2022-07-06T07:07:13;2.20;;;0.90;;
67556;SDS011;54387;53.526;49.300;2022-07-06T07:09:48;5.72;;;1.33;;
67556;SDS011;54387;53.526;49.300;2022-07-06T07:12:14;4.32;;;0.60;;
67556;SDS011;54387;53.526;49.300;2022-07-06T07:14:42;2.78;;;0.70;;
67556;SDS011;54387;53.526;49.300;2022-07-06T07:17:09;2.90;;;0.75;;
67556;SDS011;54387;53.526;49.300;2022-07-06T07:19:38;1.67;;;0.73;;
67556;SDS011;54387;53.526;49.300;2022-07-06T07:22:05;1.25;;;0.77;;
67556;SDS011;54387;53.526;49.300;2022-07-06T07:24:31;4.50;;;1.00;;
67556;SDS011;54387;53.526;49.300;2022-07-06T07:26:57;4.22;;;0.85;;
67556;SDS011;54387;53.526;49.300;2022-07-06T07:29:23;1.00;;;0.60;;
67556;SDS011;54387;53.526;49.300;2022-07-06T07:31:50;1.50;;;0.65;;
67556;SDS011;54387;53.526;49.300;2022-07-06T07:34:16;5.03;;;1.88;;
67556;SDS011;54387;53.526;49.300;2022-07-06T07:36:42;4.40;;;0.50;;
67556;SDS011;54387;53.526;49.300;2022-07-06T07:39:08;1.27;;;0.47;;
67556;SDS011;54387;53.526;49.300;2022-07-06T07:41:34;3.55;;;1.02;;
67556;SDS011;54387;53.526;49.300;2022-07-06T07:44:01;1.10;;;0.70;;
67556;SDS011;54387;53.526;49.300;2022-07-06T07:46:27;2.05;;;0.60;;
67556;SDS011;54387;53.526;49.300;2022-07-06T07:48:53;2.95;;;0.77;;
67556;SDS011;54387;53.526;49.300;2022-07-06T07:51:19;2.00;;;0.90;;
67556;SDS011;54387;53.526;49.300;2022-07-06T07:53:45;1.65;;;0.90;;
67556;SDS011;54387;53.526;49.300;2022-07-06T07:56:12;2.95;;;1.00;;
67556;SDS011;54387;53.526;49.300;2022-07-06T07:58:38;4.18;;;1.02;;
67556;SDS011;54387;53.526;49.300;2022-07-06T08:01:04;4.40;;;0.82;;
67556;SDS011;54387;53.526;49.300;2022-07-06T08:03:30;2.40;;;0.68;;
67556;SDS011;54387;53.526;49.300;2022-07-06T08:05:57;1.52;;;0.70;;
67556;SDS011;54387;53.526;49.300;2022-07-06T08:08:23;2.95;;;0.95;;
67556;SDS011;54387;53.526;49.300;2022-07-06T08:10:50;3.08;;;0.70;;
67556;SDS011;54387;53.526;49.300;2022-07-06T08:13:16;5.82;;;0.70;;
67556;SDS011;54387;53.526;49.300;2022-07-06T08:15:54;2.15;;;0.73;;
67556;SDS011;54387;53.526;49.300;2022-07-06T08:18:23;3.60;;;1.08;;
67556;SDS011;54387;53.526;49.300;2022-07-06T08:20:49;3.65;;;0.90;;
67556;SDS011;54387;53.526;49.300;2022-07-06T08:23:15;3.17;;;0.73;;
67556;SDS011;54387;53.526;49.300;2022-07-06T08:25:42;2.90;;;1.02;;
67556;SDS011;54387;53.526;49.300;2022-07-06T08:28:08;4.57;;;1.20;;
67556;SDS011;54387;53.526;49.300;2022-07-06T08:30:34;2.00;;;0.70;;
67556;SDS011;54387;53.526;49.300;2022-07-06T08:33:00;1.63;;;0.73;;
67556;SDS011;54387;53.526;49.300;2022-07-06T08:35:27;4.18;;;1.20;;
67556;SDS011;54387;53.526;49.300;2022-07-06T08:37:53;0.88;;;0.50;;
67556;SDS011;54387;53.526;49.300;2022-07-06T08:40:19;2.55;;;0.60;;
67556;SDS011;54387;53.526;49.300;2022-07-06T08:42:46;3.83;;;0.70;;
67556;SDS011;54387;53.526;49.300;2022-07-06T08:45:18;2.05;;;0.70;;
67556;SDS011;54387;53.526;49.300;2022-07-06T08:47:45;2.40;;;1.00;;
67556;SDS011;54387;53.526;49.300;2022-07-06T08:50:20;1.42;;;0.60;;
67556;SDS011;54387;53.526;49.300;2022-07-06T08:52:47;4.35;;;1.40;;
67556;SDS011;54387;53.526;49.300;2022-07-06T08:55:15;2.50;;;0.80;;
67556;SDS011;54387;53.526;49.300;2022-07-06T08:57:44;2.35;;;0.85;;
67556;SDS011;54387;53.526;49.300;2022-07-06T09:00:12;4.28;;;1.17;;
67556;SDS011;54387;53.526;49.300;2022-07-06T09:02:44;3.97;;;0.90;;
67556;SDS011;54387;53.526;49.300;2022-07-06T09:05:14;3.60;;;1.15;;
67556;SDS011;54387;53.526;49.300;2022-07-06T09:07:41;4.00;;;1.20;;
67556;SDS011;54387;53.526;49.300;2022-07-06T09:10:11;1.33;;;0.73;;
67556;SDS011;54387;53.526;49.300;2022-07-06T09:12:37;2.40;;;0.60;;
67556;SDS011;54387;53.526;49.300;2022-07-06T09:15:04;2.17;;;0.80;;
67556;SDS011;54387;53.526;49.300;2022-07-06T09:17:30;1.38;;;0.50;;
67556;SDS011;54387;53.526;49.300;2022-07-06T09:19:57;7.32;;;0.95;;
67556;SDS011;54387;53.526;49.300;2022-07-06T09:22:24;2.10;;;0.88;;
67556;SDS011;54387;53.526;49.300;2022-07-06T09:24:52;2.97;;;1.00;;
67556;SDS011;54387;53.526;49.300;2022-07-06T09:27:18;4.00;;;1.52;;
67556;SDS011;54387;53.526;49.300;2022-07-06T09:29:44;3.47;;;0.82;;
67556;SDS011;54387;53.526;49.300;2022-07-06T09:32:11;2.78;;;0.65;;
67556;SDS011;54387;53.526;49.300;2022-07-06T09:34:45;3.90;;;1.08;;
67556;SDS011;54387;53.526;49.300;2022-07-06T09:37:13;6.05;;;0.95;;
67556;SDS011;54387;53.526;49.300;2022-07-06T09:39:40;1.20;;;0.60;;
67556;SDS011;54387;53.526;49.300;2022-07-06T09:42:08;2.72;;;0.95;;
67556;SDS011;54387;53.526;49.300;2022-07-06T09:44:35;2.13;;;0.90;;
67556;SDS011;54387;53.526;49.300;2022-07-06T09:47:06;3.03;;;1.00;;
67556;SDS011;54387;53.526;49.300;2022-07-06T09:49:34;2.95;;;1.27;;
67556;SDS011;54387;53.526;49.300;2022-07-06T09:52:02;3.05;;;0.90;;
67556;SDS011;54387;53.526;49.300;2022-07-06T09:54:30;1.90;;;0.95;;
67556;SDS011;54387;53.526;49.300;2022-07-06T09:56:57;3.35;;;0.80;;
67556;SDS011;54387;53.526;49.300;2022-07-06T09:59:27;2.13;;;0.80;;
67556;SDS011;54387;53.526;49.300;2022-07-06T10:01:56;1.08;;;0.73;;
67556;SDS011;54387;53.526;49.300;2022-07-06T10:04:30;1.50;;;0.82;;
67556;SDS011;54387;53.526;49.300;2022-07-06T10:06:57;1.35;;;0.85;;
67556;SDS011;54387;53.526;49.300;2022-07-06T10:09:25;1.10;;;0.70;;
67556;SDS011;54387;53.526;49.300;2022-07-06T10:11:59;4.38;;;2.42;;
67556;SDS011;54387;53.526;49.300;2022-07-06T10:14:28;1.70;;;1.30;;
67556;SDS011;54387;53.526;49.300;2022-07-06T10:16:59;3.47;;;2.10;;
67556;SDS011;54387;53.526;49.300;2022-07-06T10:19:28;2.13;;;1.00;;
67556;SDS011;54387;53.526;49.300;2022-07-06T10:22:01;2.97;;;1.05;;
67556;SDS011;54387;53.526;49.300;2022-07-06T10:24:29;1.23;;;0.80;;
67556;SDS011;54387;53.526;49.300;2022-07-06T10:26:56;3.58;;;0.68;;
67556;SDS011;54387;53.526;49.300;2022-07-06T10:29:23;2.25;;;0.73;;
67556;SDS011;54387;53.526;49.300;2022-07-06T10:31:50;2.00;;;1.00;;
67556;SDS011;54387;53.526;49.300;2022-07-06T10:34:19;3.97;;;0.95;;
67556;SDS011;54387;53.526;49.300;2022-07-06T10:36:50;1.92;;;0.80;;
67556;SDS011;54387;53.526;49.300;2022-07-06T10:45:04;1.55;;;1.38;;
67556;SDS011;54387;53.526;49.300;2022-07-06T10:47:31;1.83;;;0.80;;
67556;SDS011;54387;53.526;49.300;2022-07-06T10:50:00;1.67;;;0.65;;
67556;SDS011;54387;53.526;49.300;2022-07-06T10:55:34;2.17;;;0.80;;
67556;SDS011;54387;53.526;49.300;2022-07-06T10:58:04;2.00;;;0.80;;
67556;SDS011;54387;53.526;49.300;2022-07-06T11:06:06;2.47;;;0.90;;
67556;SDS011;54387;53.526;49.300;2022-07-06T11:08:58;1.27;;;0.80;;
67556;SDS011;54387;53.526;49.300;2022-07-06T11:16:34;2.58;;;1.00;;
67556;SDS011;54387;53.526;49.300;2022-07-06T11:19:15;2.67;;;2.47;;
67556;SDS011;54387;53.526;49.300;2022-07-06T11:21:52;2.45;;;1.02;;
67556;SDS011;54387;53.526;49.300;2022-07-06T11:24:29;1.00;;;0.90;;
67556;SDS011;54387;53.526;49.300;2022-07-06T11:26:58;1.00;;;0.90;;
67556;SDS011;54387;53.526;49.300;2022-07-06T11:29:26;1.20;;;1.00;;
67556;SDS011;54387;53.526;49.300;2022-07-06T11:31:59;2.13;;;1.00;;
67556;SDS011;54387;53.526;49.300;2022-07-06T11:34:29;2.60;;;1.38;;
67556;SDS011;54387;53.526;49.300;2022-07-06T11:37:01;1.45;;;0.85;;
67556;SDS011;54387;53.526;49.300;2022-07-06T11:39:30;1.27;;;1.00;;
67556;SDS011;54387;53.526;49.300;2022-07-06T11:41:57;4.30;;;1.33;;
67556;SDS011;54387;53.526;49.300;2022-07-06T11:44:25;1.55;;;1.00;;
67556;SDS011;54387;53.526;49.300;2022-07-06T11:46:51;1.15;;;0.90;;
67556;SDS011;54387;53.526;49.300;2022-07-06T11:49:18;4.20;;;1.00;;
67556;SDS011;54387;53.526;49.300;2022-07-06T11:51:45;1.60;;;0.90;;
67556;SDS011;54387;53.526;49.300;2022-07-06T11:54:20;3.05;;;0.90;;
67556;SDS011;54387;53.526;49.300;2022-07-06T11:56:51;1.77;;;1.23;;
67556;SDS011;54387;53.526;49.300;2022-07-06T11:59:25;1.90;;;0.80;;
67556;SDS011;54387;53.526;49.300;2022-07-06T12:02:05;1.88;;;1.10;;
67556;SDS011;54387;53.526;49.300;2022-07-06T12:04:34;2.10;;;0.80;;
67556;SDS011;54387;53.526;49.300;2022-07-06T12:07:05;1.98;;;0.80;;
67556;SDS011;54387;53.526;49.300;2022-07-06T12:09:39;4.22;;;1.20;;
67556;SDS011;54387;53.526;49.300;2022-07-06T12:12:07;2.70;;;1.08;;
67556;SDS011;54387;53.526;49.300;2022-07-06T12:14:35;1.10;;;1.00;;
67556;SDS011;54387;53.526;49.300;2022-07-06T12:17:03;2.72;;;1.08;;
67556;SDS011;54387;53.526;49.300;2022-07-06T12:19:38;3.35;;;1.02;;
67556;SDS011;54387;53.526;49.300;2022-07-06T12:22:05;2.03;;;1.20;;
67556;SDS011;54387;53.526;49.300;2022-07-06T12:24:33;2.38;;;0.90;;
67556;SDS011;54387;53.526;49.300;2022-07-06T12:27:15;2.47;;;1.20;;
67556;SDS011;54387;53.526;49.300;2022-07-06T12:29:44;3.10;;;1.13;;
67556;SDS011;54387;53.526;49.300;2022-07-06T12:32:18;2.58;;;1.20;;
67556;SDS011;54387;53.526;49.300;2022-07-06T12:37:32;2.42;;;1.33;;
67556;SDS011;54387;53.526;49.300;2022-07-06T12:39:59;1.63;;;1.10;;
67556;SDS011;54387;53.526;49.300;2022-07-06T12:42:26;1.92;;;1.38;;
67556;SDS011;54387;53.526;49.300;2022-07-06T12:44:53;3.25;;;1.02;;
67556;SDS011;54387;53.526;49.300;2022-07-06T12:47:28;5.40;;;1.30;;
67556;SDS011;54387;53.526;49.300;2022-07-06T12:50:05;3.85;;;1.25;;
67556;SDS011;54387;53.526;49.300;2022-07-06T12:52:33;1.73;;;1.30;;
67556;SDS011;54387;53.526;49.300;2022-07-06T12:55:01;2.70;;;1.55;;
67556;SDS011;54387;53.526;49.300;2022-07-06T12:57:41;2.13;;;1.30;;
67556;SDS011;54387;53.526;49.300;2022-07-06T13:00:09;2.55;;;1.25;;
67556;SDS011;54387;53.526;49.300;2022-07-06T13:02:36;1.92;;;1.23;;
67556;SDS011;54387;53.526;49.300;2022-07-06T13:05:09;3.53;;;1.50;;
67556;SDS011;54387;53.526;49.300;2022-07-06T13:07:38;1.40;;;1.30;;
67556;SDS011;54387;53.526;49.300;2022-07-06T13:10:09;2.67;;;1.00;;
67556;SDS011;54387;53.526;49.300;2022-07-06T13:12:37;4.85;;;1.25;;
67556;SDS011;54387;53.526;49.300;2022-07-06T13:15:05;5.00;;;1.42;;
67556;SDS011;54387;53.526;49.300;2022-07-06T13:17:33;3.33;;;1.45;;
67556;SDS011;54387;53.526;49.300;2022-07-06T13:20:00;2.83;;;1.20;;
67556;SDS011;54387;53.526;49.300;2022-07-06T13:22:26;3.03;;;0.95;;
67556;SDS011;54387;53.526;49.300;2022-07-06T13:24:53;0.80;;;0.60;;
67556;SDS011;54387;53.526;49.300;2022-07-06T13:27:19;2.13;;;1.33;;
67556;SDS011;54387;53.526;49.300;2022-07-06T13:29:45;2.33;;;1.30;;
67556;SDS011;54387;53.526;49.300;2022-07-06T13:32:12;3.00;;;0.98;;
67556;SDS011;54387;53.526;49.300;2022-07-06T13:34:38;8.68;;;1.67;;
67556;SDS011;54387;53.526;49.300;2022-07-06T13:37:04;3.30;;;1.02;;
67556;SDS011;54387;53.526;49.300;2022-07-06T13:39:31;3.10;;;0.85;;
67556;SDS011;54387;53.526;49.300;2022-07-06T13:41:58;1.88;;;0.70;;
67556;SDS011;54387;53.526;49.300;2022-07-06T13:44:25;0.85;;;0.60;;
67556;SDS011;54387;53.526;49.300;2022-07-06T13:46:52;3.63;;;0.70;;
67556;SDS011;54387;53.526;49.300;2022-07-06T13:49:18;3.13;;;0.90;;
67556;SDS011;54387;53.526;49.300;2022-07-06T13:51:44;1.92;;;0.70;;
67556;SDS011;54387;53.526;49.300;2022-07-06T13:54:16;4.20;;;0.82;;
67556;SDS011;54387;53.526;49.300;2022-07-06T13:56:42;3.45;;;0.65;;
67556;SDS011;54387;53.526;49.300;2022-07-06T13:59:09;3.35;;;1.13;;
67556;SDS011;54387;53.526;49.300;2022-07-06T14:01:36;1.52;;;0.90;;
67556;SDS011;54387;53.526;49.300;2022-07-06T14:04:03;4.05;;;1.92;;
67556;SDS011;54387;53.526;49.300;2022-07-06T14:06:29;3.42;;;1.02;;
67556;SDS011;54387;53.526;49.300;2022-07-06T14:08:56;3.05;;;1.30;;
67556;SDS011;54387;53.526;49.300;2022-07-06T14:11:22;4.57;;;1.10;;
67556;SDS011;54387;53.526;49.300;2022-07-06T14:13:48;3.10;;;1.80;;
67556;SDS011;54387;53.526;49.300;2022-07-06T14:16:14;3.45;;;1.40;;
67556;SDS011;54387;53.526;49.300;2022-07-06T14:18:41;1.70;;;1.30;;
67556;SDS011;54387;53.526;49.300;2022-07-06T14:21:09;3.97;;;1.35;;
67556;SDS011;54387;53.526;49.300;2022-07-06T14:23:35;3.63;;;1.25;;
67556;SDS011;54387;53.526;49.300;2022-07-06T14:26:01;4.82;;;1.00;;
67556;SDS011;54387;53.526;49.300;2022-07-06T14:28:27;1.08;;;0.75;;
67556;SDS011;54387;53.526;49.300;2022-07-06T14:30:53;2.20;;;0.77;;
67556;SDS011;54387;53.526;49.300;2022-07-06T14:33:20;3.38;;;0.95;;
67556;SDS011;54387;53.526;49.300;2022-07-06T14:35:47;5.05;;;1.42;;
67556;SDS011;54387;53.526;49.300;2022-07-06T14:38:15;1.67;;;0.85;;
67556;SDS011;54387;53.526;49.300;2022-07-06T14:40:42;4.10;;;1.00;;
67556;SDS011;54387;53.526;49.300;2022-07-06T14:43:09;1.48;;;0.70;;
67556;SDS011;54387;53.526;49.300;2022-07-06T14:45:35;2.67;;;1.00;;
67556;SDS011;54387;53.526;49.300;2022-07-06T14:48:02;1.10;;;1.00;;
67556;SDS011;54387;53.526;49.300;2022-07-06T14:50:31;2.67;;;0.82;;
67556;SDS011;54387;53.526;49.300;2022-07-06T14:52:57;1.63;;;0.95;;
67556;SDS011;54387;53.526;49.300;2022-07-06T14:55:23;1.25;;;0.75;;
67556;SDS011;54387;53.526;49.300;2022-07-06T14:57:50;2.97;;;0.60;;